createdAt,value
2022-10-29T00:01:06.108Z,101605.66
2022-10-29T00:04:09.024Z,101614.78
2022-10-29T00:07:13.234Z,101612.31
2022-10-29T00:10:15.909Z,101605.09
2022-10-29T00:13:18.568Z,101602.63
2022-10-29T00:16:23.622Z,101608.94
2022-10-29T00:19:27.858Z,101601.22
2022-10-29T00:22:32.631Z,101613.97
2022-10-29T00:25:35.489Z,101610.31
2022-10-29T00:28:38.269Z,101616.69
2022-10-29T00:31:41.066Z,101631.88
2022-10-29T00:34:43.948Z,101632.69
2022-10-29T00:37:48.362Z,101655.09
2022-10-29T00:40:51.287Z,101652.59
2022-10-29T00:44:28.380Z,101651.00
2022-10-29T00:47:34.778Z,101648.25
2022-10-29T00:50:37.563Z,101651.28
2022-10-29T00:53:45.468Z,101644.94
2022-10-29T00:56:50.059Z,101631.69
2022-10-29T00:59:53.852Z,101634.72
2022-10-29T01:02:56.873Z,101629.19
2022-10-29T01:06:01.192Z,101641.91
2022-10-29T01:09:05.609Z,101646.88
2022-10-29T01:12:26.806Z,101651.06
2022-10-29T01:15:38.237Z,101657.38
2022-10-29T01:18:50.006Z,101643.25
2022-10-29T01:21:57.532Z,101639.63
2022-10-29T01:25:26.903Z,101629.66
2022-10-29T01:28:42.735Z,101636.81
2022-10-29T01:31:50.951Z,101630.72
2022-10-29T01:35:01.450Z,101635.13
2022-10-29T01:38:13.292Z,101638.72
2022-10-29T01:41:21.385Z,101653.59
2022-10-29T01:44:34.282Z,101652.78
2022-10-29T01:47:43.006Z,101645.56
2022-10-29T01:50:50.771Z,101650.50
2022-10-29T01:53:54.517Z,101657.38
2022-10-29T01:56:58.433Z,101657.47
2022-10-29T02:00:04.100Z,101661.00
2022-10-29T02:03:22.649Z,101660.69
2022-10-29T02:06:38.209Z,101673.94
2022-10-29T02:09:53.215Z,101670.88
2022-10-29T02:12:58.459Z,101666.41
2022-10-29T02:16:06.753Z,101669.41
2022-10-29T02:19:10.931Z,101673.25
2022-10-29T02:22:13.518Z,101674.59
2022-10-29T02:25:16.219Z,101688.94
2022-10-29T02:31:26.922Z,101693.84
2022-10-29T02:34:31.023Z,101697.97
2022-10-29T02:37:34.968Z,101695.50
2022-10-29T02:40:37.697Z,101699.94
2022-10-29T02:43:40.419Z,101706.00
2022-10-29T02:46:43.137Z,101703.16
2022-10-29T02:49:47.814Z,101701.47
2022-10-29T02:52:53.249Z,101706.69
2022-10-29T02:55:56.114Z,101699.72
2022-10-29T02:58:59.007Z,101697.50
2022-10-29T03:02:01.889Z,101697.78
2022-10-29T03:05:06.798Z,101692.22
2022-10-29T03:08:09.831Z,101696.84
2022-10-29T03:11:13.396Z,101701.78
2022-10-29T03:14:16.734Z,101689.06
2022-10-29T03:17:19.820Z,101695.69
2022-10-29T03:20:24.547Z,101697.09
2022-10-29T03:23:27.765Z,101690.19
2022-10-29T03:26:30.761Z,101699.56
2022-10-29T03:29:33.627Z,101698.41
2022-10-29T03:32:36.470Z,101692.56
2022-10-29T03:35:43.939Z,101700.81
2022-10-29T03:38:47.033Z,101697.75
2022-10-29T03:41:49.704Z,101699.34
2022-10-29T03:44:52.968Z,101705.13
2022-10-29T03:47:56.222Z,101719.44
2022-10-29T03:51:02.896Z,101715.78
2022-10-29T03:54:05.734Z,101716.88
2022-10-29T03:57:09.091Z,101706.34
2022-10-29T04:00:12.813Z,101721.25
2022-10-29T04:03:15.373Z,101717.66
2022-10-29T04:06:19.908Z,101724.59
2022-10-29T04:09:22.525Z,101723.19
2022-10-29T04:12:25.228Z,101723.97
2022-10-29T04:15:27.926Z,101723.38
2022-10-29T04:18:30.625Z,101727.47
2022-10-29T04:31:42.602Z,101716.91
2022-10-29T04:34:45.141Z,101712.47
2022-10-29T04:37:49.167Z,101714.41
2022-10-29T04:40:51.766Z,101714.91
2022-10-29T04:43:54.443Z,101701.22
2022-10-29T04:46:57.108Z,101697.41
2022-10-29T04:49:59.737Z,101692.72
2022-10-29T04:53:05.198Z,101719.53
2022-10-29T04:56:08.161Z,101722.03
2022-10-29T04:59:10.834Z,101735.00
2022-10-29T05:02:13.565Z,101740.50
2022-10-29T05:05:16.273Z,101731.91
2022-10-29T05:08:21.618Z,101733.84
2022-10-29T05:11:24.181Z,101739.34
2022-10-29T05:14:26.910Z,101738.53
2022-10-29T05:17:29.626Z,101731.66
2022-10-29T05:20:32.481Z,101734.09
2022-10-29T05:23:36.484Z,101741.28
2022-10-29T05:26:39.108Z,101736.59
2022-10-29T05:29:41.883Z,101732.66
2022-10-29T05:32:44.705Z,101734.31
2022-10-29T05:35:47.547Z,101732.66
2022-10-29T05:38:51.580Z,101718.53
2022-10-29T05:41:54.153Z,101715.19
2022-10-29T05:44:59.073Z,101709.41
2022-10-29T05:48:04.095Z,101709.34
2022-10-29T05:51:06.779Z,101720.38
2022-10-29T05:54:10.809Z,101722.88
2022-10-29T05:57:13.363Z,101727.56
2022-10-29T06:00:16.574Z,101735.00
2022-10-29T06:03:23.148Z,101728.09
2022-10-29T06:06:25.836Z,101736.59
2022-10-29T06:09:29.903Z,101734.94
2022-10-29T06:12:34.889Z,101738.03
2022-10-29T06:15:37.765Z,101727.75
2022-10-29T06:18:40.521Z,101741.28
2022-10-29T06:21:43.118Z,101749.91
2022-10-29T06:24:47.156Z,101754.06
2022-10-29T06:27:49.699Z,101747.50
2022-10-29T06:30:52.602Z,101759.50
2022-10-29T06:33:56.268Z,101755.72
2022-10-29T06:36:58.805Z,101768.41
2022-10-29T06:40:02.896Z,101762.97
2022-10-29T06:43:07.322Z,101771.06
2022-10-29T06:46:10.169Z,101770.03
2022-10-29T06:49:12.748Z,101765.97
2022-10-29T06:52:15.307Z,101771.84
2022-10-29T06:55:19.451Z,101771.38
2022-10-29T06:58:22.210Z,101769.53
2022-10-29T07:01:30.732Z,101775.94
2022-10-29T07:04:34.550Z,101773.00
2022-10-29T07:07:37.113Z,101770.00
2022-10-29T07:10:41.146Z,101763.50
2022-10-29T07:13:43.751Z,101769.44
2022-10-29T07:16:46.438Z,101767.06
2022-10-29T07:19:49.142Z,101779.25
2022-10-29T07:22:51.713Z,101779.31
2022-10-29T07:25:55.804Z,101784.84
2022-10-29T07:28:58.572Z,101783.22
2022-10-29T07:32:01.288Z,101801.81
2022-10-29T07:35:04.025Z,101807.44
2022-10-29T07:38:10.888Z,101807.53
2022-10-29T07:41:15.650Z,101817.31
2022-10-29T07:44:18.328Z,101814.31
2022-10-29T07:47:21.075Z,101806.38
2022-10-29T07:50:23.821Z,101812.00
2022-10-29T07:53:26.681Z,101807.88
2022-10-29T07:56:30.734Z,101809.88
2022-10-29T07:59:33.292Z,101799.97
2022-10-29T08:02:36.032Z,101811.06
2022-10-29T08:05:39.037Z,101819.44
2022-10-29T08:08:41.585Z,101816.47
2022-10-29T08:11:49.020Z,101810.72
2022-10-29T08:14:58.195Z,101811.28
2022-10-29T08:18:01.255Z,101808.84
2022-10-29T08:21:05.848Z,101827.69
2022-10-29T08:24:08.554Z,101817.19
2022-10-29T08:27:12.606Z,101818.56
2022-10-29T08:30:15.277Z,101825.31
2022-10-29T08:33:18.183Z,101820.59
2022-10-29T08:36:20.899Z,101823.34
2022-10-29T08:39:23.562Z,101825.34
2022-10-29T08:42:40.305Z,101819.56
2022-10-29T08:45:47.515Z,101821.78
2022-10-29T08:48:55.443Z,101815.41
2022-10-29T08:52:04.207Z,101808.19
2022-10-29T08:55:14.238Z,101819.00
2022-10-29T08:58:28.112Z,101826.19
2022-10-29T09:01:31.562Z,101823.44
2022-10-29T09:04:35.831Z,101827.31
2022-10-29T09:08:02.085Z,101825.09
2022-10-29T09:11:26.372Z,101824.25
2022-10-29T09:14:46.459Z,101824.47
2022-10-29T09:18:05.725Z,101830.88
2022-10-29T09:21:18.482Z,101833.59
2022-10-29T09:24:31.307Z,101843.03
2022-10-29T09:27:46.080Z,101841.38
2022-10-29T09:30:59.942Z,101845.81
2022-10-29T09:34:11.027Z,101830.28
2022-10-29T09:37:18.853Z,101829.13
2022-10-29T09:40:32.143Z,101826.28
2022-10-29T09:43:39.935Z,101826.16
2022-10-29T09:46:50.964Z,101820.25
2022-10-29T09:50:12.743Z,101826.28
2022-10-29T09:53:15.736Z,101810.78
2022-10-29T09:56:18.472Z,101801.28
2022-10-29T09:59:29.493Z,101808.56
2022-10-29T10:02:37.495Z,101799.72
2022-10-29T10:05:58.461Z,101804.81
2022-10-29T10:09:02.770Z,101806.97
2022-10-29T10:12:08.788Z,101805.84
2022-10-29T10:15:21.018Z,101812.25
2022-10-29T10:18:27.061Z,101811.31
2022-10-29T10:21:31.931Z,101806.16
2022-10-29T10:24:36.122Z,101800.63
2022-10-29T10:27:38.658Z,101787.78
2022-10-29T10:30:43.205Z,101791.16
2022-10-29T10:33:51.043Z,101785.94
2022-10-29T10:36:56.256Z,101791.09
2022-10-29T10:40:02.624Z,101783.69
2022-10-29T10:43:08.240Z,101778.91
2022-10-29T10:46:17.205Z,101788.84
2022-10-29T10:49:30.184Z,101794.47
2022-10-29T10:52:33.505Z,101790.41
2022-10-29T10:55:38.721Z,101786.13
2022-10-29T10:58:48.248Z,101790.38
2022-10-29T11:01:53.543Z,101799.59
2022-10-29T11:05:05.111Z,101784.44
2022-10-29T11:08:17.392Z,101769.28
2022-10-29T11:11:27.457Z,101766.50
2022-10-29T11:15:14.196Z,101762.72
2022-10-29T11:18:21.916Z,101763.63
2022-10-29T11:21:31.738Z,101742.47
2022-10-29T11:24:45.097Z,101730.78
2022-10-29T11:27:52.958Z,101734.47
2022-10-29T11:31:01.115Z,101736.66
2022-10-29T11:34:07.729Z,101742.97
2022-10-29T11:37:19.418Z,101744.00
2022-10-29T11:40:25.118Z,101731.91
2022-10-29T11:43:27.694Z,101722.78
2022-10-29T11:46:40.403Z,101729.63
2022-10-29T11:49:58.184Z,101728.66
2022-10-29T11:53:17.078Z,101718.63
2022-10-29T11:56:31.164Z,101727.75
2022-10-29T11:59:48.142Z,101705.34
2022-10-29T12:03:16.908Z,101713.09
2022-10-29T12:06:26.393Z,101694.91
2022-10-29T12:09:46.518Z,101699.34
2022-10-29T12:12:53.497Z,101693.56
2022-10-29T12:16:08.744Z,101698.69
2022-10-29T12:19:25.815Z,101701.78
2022-10-29T12:22:38.287Z,101697.97
2022-10-29T12:25:52.836Z,101703.19
2022-10-29T12:29:03.976Z,101697.94
2022-10-29T12:32:12.912Z,101693.84
2022-10-29T12:35:21.256Z,101693.19
2022-10-29T12:38:39.119Z,101683.88
2022-10-29T12:41:47.103Z,101677.47
2022-10-29T12:45:01.661Z,101680.59
2022-10-29T12:48:11.951Z,101663.72
2022-10-29T12:51:21.426Z,101661.31
2022-10-29T12:54:36.818Z,101649.97
2022-10-29T12:57:40.867Z,101646.28
2022-10-29T13:00:48.723Z,101637.91
2022-10-29T13:04:02.205Z,101647.91
2022-10-29T13:07:07.199Z,101644.59
2022-10-29T13:10:43.109Z,101648.75
2022-10-29T13:14:00.155Z,101640.53
2022-10-29T13:17:05.253Z,101636.19
2022-10-29T13:20:21.680Z,101640.75
2022-10-29T13:23:35.106Z,101632.28
2022-10-29T13:26:58.778Z,101627.50
2022-10-29T13:30:25.526Z,101628.31
2022-10-29T13:33:52.391Z,101623.25
2022-10-29T13:36:54.975Z,101611.25
2022-10-29T13:40:31.011Z,101617.66
2022-10-29T13:43:34.516Z,101609.19
2022-10-29T13:46:48.761Z,101619.13
2022-10-29T13:49:52.027Z,101616.09
2022-10-29T13:52:59.688Z,101619.00
2022-10-29T13:56:03.209Z,101610.84
2022-10-29T13:59:12.212Z,101606.53
2022-10-29T14:02:24.793Z,101612.41
2022-10-29T14:05:32.563Z,101612.53
2022-10-29T14:08:41.736Z,101607.88
2022-10-29T14:11:49.507Z,101609.31
2022-10-29T14:14:59.095Z,101602.91
2022-10-29T14:18:24.864Z,101596.41
2022-10-29T14:21:30.118Z,101609.31
2022-10-29T14:24:38.618Z,101613.94
2022-10-29T14:27:41.495Z,101600.09
2022-10-29T14:30:44.486Z,101593.25
2022-10-29T14:33:55.364Z,101598.06
2022-10-29T14:37:03.269Z,101595.38
2022-10-29T14:40:16.210Z,101599.66
2022-10-29T14:43:24.953Z,101605.25
2022-10-29T14:46:30.035Z,101608.53
2022-10-29T14:49:36.262Z,101612.88
2022-10-29T14:52:42.302Z,101613.47
2022-10-29T14:55:49.217Z,101610.38
2022-10-29T14:58:51.821Z,101609.00
2022-10-29T15:02:05.609Z,101605.38
2022-10-29T15:05:26.888Z,101605.16
2022-10-29T15:08:34.248Z,101611.13
2022-10-29T15:11:39.164Z,101606.13
2022-10-29T15:14:48.164Z,101599.00
2022-10-29T15:17:53.295Z,101599.91
2022-10-29T15:20:57.854Z,101593.56
2022-10-29T15:24:06.492Z,101596.75
2022-10-29T15:27:14.827Z,101591.19
2022-10-29T15:30:20.338Z,101592.13
2022-10-29T15:33:27.575Z,101593.66
2022-10-29T15:40:05.999Z,101586.38
2022-10-29T15:43:30.172Z,101590.66
2022-10-29T15:46:45.267Z,101595.19
2022-10-29T15:49:48.189Z,101603.34
2022-10-29T15:52:56.949Z,101606.72
2022-10-29T15:56:00.864Z,101615.13
2022-10-29T15:59:03.645Z,101614.91
2022-10-29T16:02:17.502Z,101615.47
2022-10-29T16:05:20.396Z,101615.00
2022-10-29T16:08:27.597Z,101620.00
2022-10-29T16:11:31.639Z,101611.41
2022-10-29T16:14:34.388Z,101613.41
2022-10-29T16:17:37.202Z,101610.09
2022-10-29T16:20:39.823Z,101605.66
2022-10-29T16:23:43.004Z,101604.84
2022-10-29T16:26:46.993Z,101604.91
2022-10-29T16:29:50.106Z,101606.06
2022-10-29T16:32:53.362Z,101614.97
2022-10-29T16:35:57.501Z,101609.47
2022-10-29T16:39:03.099Z,101594.78
2022-10-29T16:42:08.590Z,101588.75
2022-10-29T16:45:16.690Z,101581.84
2022-10-29T16:48:20.551Z,101590.22
2022-10-29T16:51:23.263Z,101589.13
2022-10-29T16:54:26.266Z,101590.00
2022-10-29T16:57:30.726Z,101582.25
2022-10-29T17:00:36.922Z,101588.44
2022-10-29T17:03:40.181Z,101593.47
2022-10-29T17:06:42.855Z,101597.63
2022-10-29T17:09:45.515Z,101606.22
2022-10-29T17:12:50.126Z,101603.44
2022-10-29T17:15:52.789Z,101601.25
2022-10-29T17:18:56.546Z,101599.03
2022-10-29T17:21:59.595Z,101602.09
2022-10-29T17:25:02.348Z,101587.13
2022-10-29T17:28:06.286Z,101589.66
2022-10-29T17:31:10.250Z,101599.38
2022-10-29T17:34:12.799Z,101603.84
2022-10-29T17:37:15.403Z,101611.31
2022-10-29T17:40:18.129Z,101613.31
2022-10-29T17:43:22.185Z,101604.19
2022-10-29T17:46:24.794Z,101610.56
2022-10-29T17:49:27.611Z,101602.53
2022-10-29T17:52:30.189Z,101615.31
2022-10-29T17:55:32.875Z,101615.88
2022-10-29T17:58:38.973Z,101608.13
2022-10-29T18:01:41.791Z,101604.53
2022-10-29T18:04:46.556Z,101607.06
2022-10-29T18:07:49.232Z,101606.78
2022-10-29T18:10:53.505Z,101603.72
2022-10-29T18:13:58.510Z,101592.13
2022-10-29T18:17:02.785Z,101592.69
2022-10-29T18:20:06.643Z,101590.47
2022-10-29T18:23:09.315Z,101592.44
2022-10-29T18:26:22.537Z,101597.44
2022-10-29T18:29:26.470Z,101598.25
2022-10-29T18:32:29.038Z,101599.63
2022-10-29T18:35:31.701Z,101594.38
2022-10-29T18:38:34.565Z,101595.47
2022-10-29T18:41:37.111Z,101596.59
2022-10-29T18:44:41.094Z,101602.97
2022-10-29T18:47:43.644Z,101594.38
2022-10-29T18:50:46.224Z,101584.41
2022-10-29T18:53:49.234Z,101588.00
2022-10-29T18:56:52.299Z,101578.88
2022-10-29T18:59:56.337Z,101571.94
2022-10-29T19:02:59.251Z,101576.94
2022-10-29T19:06:03.659Z,101581.94
2022-10-29T19:09:08.805Z,101577.47
2022-10-29T19:12:12.973Z,101563.66
2022-10-29T19:15:17.127Z,101560.88
2022-10-29T19:18:19.962Z,101565.31
2022-10-29T19:21:23.646Z,101568.63
2022-10-29T19:24:26.648Z,101569.47
2022-10-29T19:27:29.400Z,101567.81
2022-10-29T19:30:33.941Z,101582.22
2022-10-29T19:33:37.291Z,101589.97
2022-10-29T19:36:40.646Z,101577.50
2022-10-29T19:39:43.412Z,101565.03
2022-10-29T19:42:48.451Z,101564.50
2022-10-29T19:45:57.742Z,101564.19
2022-10-29T19:49:00.683Z,101565.03
2022-10-29T19:52:03.377Z,101584.41
2022-10-29T19:55:07.031Z,101576.38
2022-10-29T19:58:10.752Z,101569.75
2022-10-29T20:01:15.995Z,101575.25
2022-10-29T20:04:18.965Z,101575.25
2022-10-29T20:07:21.773Z,101575.53
2022-10-29T20:10:25.500Z,101572.72
2022-10-29T20:13:28.521Z,101571.06
2022-10-29T20:16:35.605Z,101574.66
2022-10-29T20:19:40.277Z,101575.22
2022-10-29T20:22:48.160Z,101579.41
2022-10-29T20:25:51.718Z,101570.22
2022-10-29T20:29:01.301Z,101572.16
2022-10-29T20:32:06.026Z,101579.09
2022-10-29T20:35:12.237Z,101581.28
2022-10-29T20:38:15.000Z,101582.41
2022-10-29T20:41:17.838Z,101581.53
2022-10-29T20:44:20.542Z,101589.56
2022-10-29T20:47:25.880Z,101589.56
2022-10-29T20:50:28.799Z,101597.31
2022-10-29T20:53:31.391Z,101579.59
2022-10-29T20:56:34.199Z,101583.19
2022-10-29T20:59:37.291Z,101579.88
2022-10-29T21:02:41.806Z,101580.16
2022-10-29T21:05:45.388Z,101571.31
2022-10-29T21:08:48.882Z,101566.28
2022-10-29T21:11:52.800Z,101560.50
2022-10-29T21:14:55.592Z,101567.44
2022-10-29T21:18:05.144Z,101573.78
2022-10-29T21:21:10.607Z,101570.47
2022-10-29T21:24:13.194Z,101576.53
2022-10-29T21:27:18.509Z,101583.72
2022-10-29T21:30:22.750Z,101582.66
2022-10-29T21:33:26.844Z,101580.13
2022-10-29T21:36:29.634Z,101579.00
2022-10-29T21:39:33.280Z,101577.63
2022-10-29T21:42:36.549Z,101574.59
2022-10-29T21:45:39.520Z,101572.09
2022-10-29T21:48:43.790Z,101573.44
2022-10-29T21:51:48.210Z,101574.00
2022-10-29T21:54:51.853Z,101569.28
2022-10-29T21:57:54.659Z,101566.78
2022-10-29T22:01:07.359Z,101550.75
2022-10-29T22:04:11.463Z,101551.84
2022-10-29T22:07:14.363Z,101551.03
2022-10-29T22:10:17.224Z,101565.13
2022-10-29T22:13:20.230Z,101554.34
2022-10-29T22:16:23.540Z,101533.03
2022-10-29T22:19:27.927Z,101535.81
2022-10-29T22:22:30.651Z,101537.19
2022-10-29T22:25:33.782Z,101531.94
2022-10-29T22:28:36.475Z,101541.91
2022-10-29T22:31:39.467Z,101551.84
2022-10-29T22:34:43.374Z,101552.97
2022-10-29T22:37:46.701Z,101559.84
2022-10-29T22:40:49.389Z,101563.44
2022-10-29T22:43:52.831Z,101560.66
2022-10-29T22:46:55.498Z,101557.63
2022-10-29T22:50:03.115Z,101561.50
2022-10-29T22:53:09.016Z,101571.19
2022-10-29T22:56:15.359Z,101569.25
2022-10-29T22:59:18.434Z,101557.34
2022-10-29T23:02:21.639Z,101560.94
2022-10-29T23:05:25.928Z,101559.28
2022-10-29T23:08:29.319Z,101561.78
2022-10-29T23:11:35.188Z,101554.84
2022-10-29T23:14:38.501Z,101553.16
2022-10-29T23:17:41.479Z,101551.47
2022-10-29T23:20:46.084Z,101544.84
2022-10-29T23:23:49.906Z,101544.78
2022-10-29T23:26:52.559Z,101539.81
2022-10-29T23:29:55.391Z,101545.59
2022-10-29T23:32:58.364Z,101536.50
2022-10-29T23:36:07.806Z,101542.56
2022-10-29T23:39:10.609Z,101535.66
2022-10-29T23:42:13.349Z,101534.78
2022-10-29T23:45:16.921Z,101535.88
2022-10-29T23:48:20.434Z,101535.31
2022-10-29T23:51:24.373Z,101533.66
2022-10-29T23:54:27.155Z,101538.38
2022-10-29T23:57:29.685Z,101536.97
